Almena, KS (67622)

4:53 PM CDT on October 20, 2014 (GMT -0500)
Sarrada Farms 0.1 mi W | Change Station
CLOSE
Current Station
Personal Weather Station
Location: Logan, KS
Elevation: 2021 ft
Nearby Weather Stations

Elev 2021 ft 39.66 °N, 99.58 °W | Updated 1 second ago

Clear
Clear
79.3 °F
Feels Like 79 °F
N
8.1
Wind Variable Wind from ESE
Gusts 9.0 mph

Today
High -- | Low -- °F
--% Chance of Precip.
Yesterday
High -- | Low -- °F
Precip. -- in
7:54 AM 6:52 PM
Waning Crescent, 9% visible
Pressure 30.04 in
Visibility 10.0 miles
Clouds Clear
Heat Index 79 °F
Dew Point 42 °F
Humidity 27%
Rainfall 0.00 in
Snow Depth Not available.
UV 3 out of 12
Pollen 2.20 out of 12
Air Quality Not available.
Flu Activity No Activity
METAR KHLC 202053Z AUTO 09006KT 10SM CLR 27/04 A3007 RMK AO2 SLP172 T02670039 56018

More Conditions Fewer Conditions

Pressure 30.04 in
Visibility 10.0 miles
Clouds Clear
Heat Index 79 °F
Dew Point 42 °F
Humidity 27%
Rainfall 0.00 in
Snow Depth Not available.
UV 3 out of 12
Pollen 2.20 out of 12
Air Quality Not available.
Flu Activity No Activity
METAR KHLC 202053Z AUTO 09006KT 10SM CLR 27/04 A3007 RMK AO2 SLP172 T02670039 56018

More Conditions Fewer Conditions

10-Day Weather Forecast

Almanac

Astronomy

Oct. 20, 2014 Rise Set
Actual Time 7:54 AM CDT 6:52 PM CDT
Civil Twilight 7:27 AM CDT 7:19 PM CDT
Nautical Twilight 6:55 AM CDT 7:50 PM CDT
Astronomical Twilight 6:24 AM CDT 8:22 PM CDT
Moon 4:44 AM CDT 5:15 PM CDT
Length of Visible Light 11h 52m
Length of Day
10h 57m
Waning Crescent, 9% of the Moon is Illuminated
Today
Waning Crescent
Oct 23
New
Oct 30
First Quarter
Nov 6
Full
Nov 14
Last Quarter

Today's Extremes

State Highs State Lows

Community

WunderPhotos

Upload Photos

1,763,527 photos uploaded!

WunderBlogs® & News

Nearby

Snow Depth

Station Depth Elevation
No new snow has been reported.

Earthquake Activity

City Distance Mag. Time & Date
No recent earthquake activity has been reported nearby.
Minimum magnitude displayed is 2.5.

Coastal Water Temperatures

Place Temperature
No Stations Reporting

Nearby Weather Stations